KGNT

Details ICAO KGNT (GNT)
Name Grants Milan Muni
Region United States
Timezone America/Denver (UTC-6.0)
Plans Departing 11
Arriving 9
Stats Elevation 6,537 ft / 1,992 m (AMSL)
Location 35.165218° -107.900599°
Runways 2
Magnetic Variation 9.045° E
Sunrise 2018-05-26 12:02:15 UTC / 2018-05-26 06:02:15 Local
Sunset 2018-05-27 02:17:59 UTC / 2018-05-26 20:17:59 Local
Advertisement - Login to hide

Runways

ID Width Length Bearing (true) Bearing (mag) Surface Threshold Offset Overrun Length
08 40 ft / 12 m 2,346 ft / 715 m 91.83° 82.79° Dirt 0 ft / 0 m 0 ft / 0 m
13 75 ft / 23 m 7,180 ft / 2,188 m 145.10° 136.06° Asphalt 0 ft / 0 m 0 ft / 0 m
26 40 ft / 12 m 2,346 ft / 715 m 271.84° 262.80° Dirt 0 ft / 0 m 0 ft / 0 m
31 75 ft / 23 m 7,180 ft / 2,188 m 325.11° 316.07° Asphalt 0 ft / 0 m 0 ft / 0 m

Map

Weather


0- 5 10 15 20 25 30 35+ Temperature / ° C

Clouds and Precipitation
Forecast for 2018-05-26 18:00 UTC. Updated 28 minutes ago

Ground ~20,000 ft ~40,000 ft Winds

METAR

KGNT 261735Z AUTO 13008G14KT 10SM CLR 24/M08 A3013 RMK AO2 T02371081

TAF

Not found

Frequencies

Unicom 122.80 MHz CTAF/UNICOM
Warning: Do not use this data for real-world aviation or navigation. No guarantee of current accuracy is given.